sensor_id;sensor_type;location;lat;lon;timestamp;P1;durP1;ratioP1;P2;durP2;ratioP2
19643;SDS011;9970;-36.854;174.870;2024-03-08T00:02:36;5.23;;;1.37;;
19643;SDS011;9970;-36.854;174.870;2024-03-08T00:05:09;2.00;;;0.90;;
19643;SDS011;9970;-36.854;174.870;2024-03-08T00:07:47;0.70;;;0.70;;
19643;SDS011;9970;-36.854;174.870;2024-03-08T00:10:20;1.83;;;1.10;;
19643;SDS011;9970;-36.854;174.870;2024-03-08T00:12:55;1.33;;;0.93;;
19643;SDS011;9970;-36.854;174.870;2024-03-08T00:15:28;0.80;;;0.80;;
19643;SDS011;9970;-36.854;174.870;2024-03-08T00:18:02;0.87;;;0.87;;
19643;SDS011;9970;-36.854;174.870;2024-03-08T00:20:35;1.70;;;0.93;;
19643;SDS011;9970;-36.854;174.870;2024-03-08T00:23:08;1.30;;;0.83;;
19643;SDS011;9970;-36.854;174.870;2024-03-08T00:25:41;1.10;;;1.00;;
19643;SDS011;9970;-36.854;174.870;2024-03-08T00:28:15;2.77;;;1.10;;
19643;SDS011;9970;-36.854;174.870;2024-03-08T00:30:48;2.40;;;0.80;;
19643;SDS011;9970;-36.854;174.870;2024-03-08T00:33:23;1.00;;;1.00;;
19643;SDS011;9970;-36.854;174.870;2024-03-08T00:35:57;1.80;;;0.70;;
19643;SDS011;9970;-36.854;174.870;2024-03-08T00:38:30;0.70;;;0.70;;
19643;SDS011;9970;-36.854;174.870;2024-03-08T00:41:03;1.63;;;0.70;;
19643;SDS011;9970;-36.854;174.870;2024-03-08T00:43:37;3.10;;;0.97;;
19643;SDS011;9970;-36.854;174.870;2024-03-08T00:46:10;6.00;;;1.07;;
19643;SDS011;9970;-36.854;174.870;2024-03-08T00:48:44;2.10;;;1.20;;
19643;SDS011;9970;-36.854;174.870;2024-03-08T00:51:17;7.93;;;1.60;;
19643;SDS011;9970;-36.854;174.870;2024-03-08T00:53:51;2.30;;;1.20;;
19643;SDS011;9970;-36.854;174.870;2024-03-08T00:56:24;1.47;;;1.37;;
19643;SDS011;9970;-36.854;174.870;2024-03-08T00:58:57;2.13;;;0.90;;
19643;SDS011;9970;-36.854;174.870;2024-03-08T01:01:30;2.50;;;1.03;;
19643;SDS011;9970;-36.854;174.870;2024-03-08T01:04:03;3.53;;;1.20;;
19643;SDS011;9970;-36.854;174.870;2024-03-08T01:06:37;2.67;;;1.33;;
19643;SDS011;9970;-36.854;174.870;2024-03-08T01:09:10;2.00;;;0.90;;
19643;SDS011;9970;-36.854;174.870;2024-03-08T01:11:43;2.00;;;0.90;;
19643;SDS011;9970;-36.854;174.870;2024-03-08T01:14:17;4.00;;;1.10;;
19643;SDS011;9970;-36.854;174.870;2024-03-08T01:16:51;3.97;;;1.00;;
19643;SDS011;9970;-36.854;174.870;2024-03-08T01:19:28;2.83;;;1.40;;
19643;SDS011;9970;-36.854;174.870;2024-03-08T01:22:02;3.13;;;1.03;;
19643;SDS011;9970;-36.854;174.870;2024-03-08T01:24:35;3.73;;;1.43;;
19643;SDS011;9970;-36.854;174.870;2024-03-08T01:27:08;2.93;;;1.10;;
19643;SDS011;9970;-36.854;174.870;2024-03-08T01:29:42;1.93;;;0.90;;
19643;SDS011;9970;-36.854;174.870;2024-03-08T01:32:15;6.63;;;1.03;;
19643;SDS011;9970;-36.854;174.870;2024-03-08T01:34:48;3.50;;;1.13;;
19643;SDS011;9970;-36.854;174.870;2024-03-08T01:37:21;0.80;;;0.80;;
19643;SDS011;9970;-36.854;174.870;2024-03-08T01:39:54;1.50;;;1.13;;
19643;SDS011;9970;-36.854;174.870;2024-03-08T01:42:27;2.43;;;0.80;;
19643;SDS011;9970;-36.854;174.870;2024-03-08T01:45:00;3.30;;;1.20;;
19643;SDS011;9970;-36.854;174.870;2024-03-08T01:47:34;4.67;;;1.50;;
19643;SDS011;9970;-36.854;174.870;2024-03-08T01:50:08;1.20;;;0.90;;
19643;SDS011;9970;-36.854;174.870;2024-03-08T01:52:41;1.73;;;1.00;;
19643;SDS011;9970;-36.854;174.870;2024-03-08T01:55:15;1.13;;;1.00;;
19643;SDS011;9970;-36.854;174.870;2024-03-08T01:57:52;5.30;;;1.00;;
19643;SDS011;9970;-36.854;174.870;2024-03-08T02:00:25;1.03;;;0.90;;
19643;SDS011;9970;-36.854;174.870;2024-03-08T02:02:59;1.47;;;0.90;;
19643;SDS011;9970;-36.854;174.870;2024-03-08T02:05:38;7.80;;;1.00;;
19643;SDS011;9970;-36.854;174.870;2024-03-08T02:08:14;1.23;;;1.10;;
19643;SDS011;9970;-36.854;174.870;2024-03-08T02:10:46;4.57;;;1.00;;
19643;SDS011;9970;-36.854;174.870;2024-03-08T02:13:19;4.53;;;1.20;;
19643;SDS011;9970;-36.854;174.870;2024-03-08T02:15:52;3.80;;;0.90;;
19643;SDS011;9970;-36.854;174.870;2024-03-08T02:18:25;0.83;;;0.83;;
19643;SDS011;9970;-36.854;174.870;2024-03-08T02:20:59;2.40;;;1.10;;
19643;SDS011;9970;-36.854;174.870;2024-03-08T02:23:36;5.27;;;1.53;;
19643;SDS011;9970;-36.854;174.870;2024-03-08T02:26:09;1.70;;;1.00;;
19643;SDS011;9970;-36.854;174.870;2024-03-08T02:28:42;1.10;;;1.00;;
19643;SDS011;9970;-36.854;174.870;2024-03-08T02:31:15;2.27;;;0.80;;
19643;SDS011;9970;-36.854;174.870;2024-03-08T02:33:48;1.50;;;1.40;;
19643;SDS011;9970;-36.854;174.870;2024-03-08T02:36:22;1.97;;;0.90;;
19643;SDS011;9970;-36.854;174.870;2024-03-08T02:38:55;4.80;;;1.50;;
19643;SDS011;9970;-36.854;174.870;2024-03-08T02:41:28;2.83;;;1.00;;
19643;SDS011;9970;-36.854;174.870;2024-03-08T02:44:02;2.67;;;0.90;;
19643;SDS011;9970;-36.854;174.870;2024-03-08T02:46:35;0.90;;;0.90;;
19643;SDS011;9970;-36.854;174.870;2024-03-08T02:49:08;1.47;;;1.07;;
19643;SDS011;9970;-36.854;174.870;2024-03-08T02:51:41;1.93;;;1.10;;
19643;SDS011;9970;-36.854;174.870;2024-03-08T02:54:15;2.97;;;1.30;;
19643;SDS011;9970;-36.854;174.870;2024-03-08T02:56:48;1.13;;;0.70;;
19643;SDS011;9970;-36.854;174.870;2024-03-08T02:59:22;3.23;;;0.93;;
19643;SDS011;9970;-36.854;174.870;2024-03-08T03:01:54;2.20;;;0.90;;
19643;SDS011;9970;-36.854;174.870;2024-03-08T03:04:27;4.47;;;1.00;;
19643;SDS011;9970;-36.854;174.870;2024-03-08T03:07:00;3.90;;;1.00;;
19643;SDS011;9970;-36.854;174.870;2024-03-08T03:09:34;1.77;;;0.80;;
19643;SDS011;9970;-36.854;174.870;2024-03-08T03:12:07;4.30;;;1.00;;
19643;SDS011;9970;-36.854;174.870;2024-03-08T03:14:40;1.40;;;0.70;;
19643;SDS011;9970;-36.854;174.870;2024-03-08T03:17:13;2.23;;;1.00;;
19643;SDS011;9970;-36.854;174.870;2024-03-08T03:19:50;1.40;;;0.93;;
19643;SDS011;9970;-36.854;174.870;2024-03-08T03:22:24;1.17;;;0.90;;
19643;SDS011;9970;-36.854;174.870;2024-03-08T03:24:58;2.67;;;1.67;;
19643;SDS011;9970;-36.854;174.870;2024-03-08T03:27:31;1.03;;;1.00;;
19643;SDS011;9970;-36.854;174.870;2024-03-08T03:30:05;5.47;;;1.60;;
19643;SDS011;9970;-36.854;174.870;2024-03-08T03:32:55;2.00;;;0.77;;
19643;SDS011;9970;-36.854;174.870;2024-03-08T03:35:29;2.13;;;1.17;;
19643;SDS011;9970;-36.854;174.870;2024-03-08T03:38:02;2.80;;;1.27;;
19643;SDS011;9970;-36.854;174.870;2024-03-08T03:40:39;2.47;;;1.30;;
19643;SDS011;9970;-36.854;174.870;2024-03-08T03:43:11;3.07;;;0.97;;
19643;SDS011;9970;-36.854;174.870;2024-03-08T03:45:44;2.70;;;0.90;;
19643;SDS011;9970;-36.854;174.870;2024-03-08T03:48:17;3.53;;;1.13;;
19643;SDS011;9970;-36.854;174.870;2024-03-08T03:50:50;1.30;;;1.20;;
19643;SDS011;9970;-36.854;174.870;2024-03-08T03:53:23;1.60;;;0.70;;
19643;SDS011;9970;-36.854;174.870;2024-03-08T03:55:57;4.83;;;1.00;;
19643;SDS011;9970;-36.854;174.870;2024-03-08T03:58:30;8.53;;;1.70;;
19643;SDS011;9970;-36.854;174.870;2024-03-08T04:01:04;2.47;;;1.40;;
19643;SDS011;9970;-36.854;174.870;2024-03-08T04:03:37;1.80;;;0.80;;
19643;SDS011;9970;-36.854;174.870;2024-03-08T04:06:12;2.60;;;0.90;;
19643;SDS011;9970;-36.854;174.870;2024-03-08T04:08:46;1.00;;;1.00;;
19643;SDS011;9970;-36.854;174.870;2024-03-08T04:11:19;4.00;;;1.20;;
19643;SDS011;9970;-36.854;174.870;2024-03-08T04:13:55;2.50;;;1.03;;
19643;SDS011;9970;-36.854;174.870;2024-03-08T04:16:28;2.10;;;1.07;;
19643;SDS011;9970;-36.854;174.870;2024-03-08T04:19:01;2.60;;;1.00;;
19643;SDS011;9970;-36.854;174.870;2024-03-08T04:21:34;0.80;;;0.80;;
19643;SDS011;9970;-36.854;174.870;2024-03-08T04:24:11;3.70;;;1.30;;
19643;SDS011;9970;-36.854;174.870;2024-03-08T04:26:45;0.90;;;0.90;;
19643;SDS011;9970;-36.854;174.870;2024-03-08T04:29:18;2.83;;;1.00;;
19643;SDS011;9970;-36.854;174.870;2024-03-08T04:31:51;2.50;;;0.90;;
19643;SDS011;9970;-36.854;174.870;2024-03-08T04:34:25;3.07;;;1.10;;
19643;SDS011;9970;-36.854;174.870;2024-03-08T04:36:58;3.23;;;1.73;;
19643;SDS011;9970;-36.854;174.870;2024-03-08T04:39:31;3.50;;;1.17;;
19643;SDS011;9970;-36.854;174.870;2024-03-08T04:42:05;7.20;;;1.30;;
19643;SDS011;9970;-36.854;174.870;2024-03-08T04:44:40;1.43;;;0.90;;
19643;SDS011;9970;-36.854;174.870;2024-03-08T04:47:13;1.80;;;1.10;;
19643;SDS011;9970;-36.854;174.870;2024-03-08T04:49:47;1.90;;;1.10;;
19643;SDS011;9970;-36.854;174.870;2024-03-08T04:52:20;4.10;;;1.00;;
19643;SDS011;9970;-36.854;174.870;2024-03-08T04:54:53;4.07;;;1.17;;
19643;SDS011;9970;-36.854;174.870;2024-03-08T04:57:25;4.63;;;1.40;;
19643;SDS011;9970;-36.854;174.870;2024-03-08T04:59:58;3.70;;;1.43;;
19643;SDS011;9970;-36.854;174.870;2024-03-08T05:02:31;0.70;;;0.70;;
19643;SDS011;9970;-36.854;174.870;2024-03-08T05:05:04;2.20;;;1.00;;
19643;SDS011;9970;-36.854;174.870;2024-03-08T05:07:39;3.23;;;0.90;;
19643;SDS011;9970;-36.854;174.870;2024-03-08T05:10:13;1.03;;;0.93;;
19643;SDS011;9970;-36.854;174.870;2024-03-08T05:12:47;0.83;;;0.83;;
19643;SDS011;9970;-36.854;174.870;2024-03-08T05:15:20;1.63;;;1.23;;
19643;SDS011;9970;-36.854;174.870;2024-03-08T05:17:53;1.53;;;1.43;;
19643;SDS011;9970;-36.854;174.870;2024-03-08T05:20:27;2.77;;;0.90;;
19643;SDS011;9970;-36.854;174.870;2024-03-08T05:23:01;1.50;;;1.40;;
19643;SDS011;9970;-36.854;174.870;2024-03-08T05:25:35;2.13;;;1.00;;
19643;SDS011;9970;-36.854;174.870;2024-03-08T05:28:08;4.53;;;1.07;;
19643;SDS011;9970;-36.854;174.870;2024-03-08T05:30:41;1.00;;;0.90;;
19643;SDS011;9970;-36.854;174.870;2024-03-08T05:33:14;3.50;;;0.90;;
19643;SDS011;9970;-36.854;174.870;2024-03-08T05:35:47;0.90;;;0.90;;
19643;SDS011;9970;-36.854;174.870;2024-03-08T05:38:20;1.23;;;0.97;;
19643;SDS011;9970;-36.854;174.870;2024-03-08T05:40:52;1.07;;;1.00;;
19643;SDS011;9970;-36.854;174.870;2024-03-08T05:43:26;4.30;;;1.13;;
19643;SDS011;9970;-36.854;174.870;2024-03-08T05:45:59;1.63;;;1.13;;
19643;SDS011;9970;-36.854;174.870;2024-03-08T05:48:33;2.53;;;1.30;;
19643;SDS011;9970;-36.854;174.870;2024-03-08T05:51:07;1.10;;;1.10;;
19643;SDS011;9970;-36.854;174.870;2024-03-08T05:53:40;5.23;;;1.37;;
19643;SDS011;9970;-36.854;174.870;2024-03-08T05:56:13;1.20;;;0.87;;
19643;SDS011;9970;-36.854;174.870;2024-03-08T05:58:46;0.97;;;0.97;;
19643;SDS011;9970;-36.854;174.870;2024-03-08T06:01:22;0.80;;;0.80;;
19643;SDS011;9970;-36.854;174.870;2024-03-08T06:03:56;1.20;;;0.93;;
19643;SDS011;9970;-36.854;174.870;2024-03-08T06:06:29;0.87;;;0.87;;
19643;SDS011;9970;-36.854;174.870;2024-03-08T06:09:02;1.13;;;0.93;;
19643;SDS011;9970;-36.854;174.870;2024-03-08T06:11:43;1.50;;;1.03;;
19643;SDS011;9970;-36.854;174.870;2024-03-08T06:14:16;1.07;;;1.03;;
19643;SDS011;9970;-36.854;174.870;2024-03-08T06:16:50;2.77;;;1.00;;
19643;SDS011;9970;-36.854;174.870;2024-03-08T06:19:23;1.83;;;0.80;;
19643;SDS011;9970;-36.854;174.870;2024-03-08T06:21:56;3.83;;;0.90;;
19643;SDS011;9970;-36.854;174.870;2024-03-08T06:24:30;4.00;;;1.33;;
19643;SDS011;9970;-36.854;174.870;2024-03-08T06:27:04;9.13;;;1.40;;
19643;SDS011;9970;-36.854;174.870;2024-03-08T06:29:38;1.23;;;1.23;;
19643;SDS011;9970;-36.854;174.870;2024-03-08T06:32:11;2.93;;;1.10;;
19643;SDS011;9970;-36.854;174.870;2024-03-08T06:34:45;7.80;;;1.57;;
19643;SDS011;9970;-36.854;174.870;2024-03-08T06:37:18;1.87;;;1.20;;
19643;SDS011;9970;-36.854;174.870;2024-03-08T06:39:51;7.30;;;1.27;;
19643;SDS011;9970;-36.854;174.870;2024-03-08T06:42:26;8.00;;;1.50;;
19643;SDS011;9970;-36.854;174.870;2024-03-08T06:45:01;0.90;;;0.90;;
19643;SDS011;9970;-36.854;174.870;2024-03-08T06:47:38;2.60;;;1.00;;
19643;SDS011;9970;-36.854;174.870;2024-03-08T06:50:11;1.30;;;1.20;;
19643;SDS011;9970;-36.854;174.870;2024-03-08T06:52:44;1.27;;;1.13;;
19643;SDS011;9970;-36.854;174.870;2024-03-08T06:55:19;2.67;;;1.57;;
19643;SDS011;9970;-36.854;174.870;2024-03-08T06:57:52;5.43;;;1.00;;
19643;SDS011;9970;-36.854;174.870;2024-03-08T07:00:25;1.20;;;1.00;;
19643;SDS011;9970;-36.854;174.870;2024-03-08T07:03:00;2.00;;;0.87;;
19643;SDS011;9970;-36.854;174.870;2024-03-08T07:05:33;2.20;;;0.90;;
19643;SDS011;9970;-36.854;174.870;2024-03-08T07:08:06;3.20;;;1.10;;
19643;SDS011;9970;-36.854;174.870;2024-03-08T07:10:39;1.33;;;0.93;;
19643;SDS011;9970;-36.854;174.870;2024-03-08T07:13:12;3.57;;;1.10;;
19643;SDS011;9970;-36.854;174.870;2024-03-08T07:15:45;5.00;;;1.40;;
19643;SDS011;9970;-36.854;174.870;2024-03-08T07:18:18;3.03;;;1.20;;
19643;SDS011;9970;-36.854;174.870;2024-03-08T07:20:51;0.93;;;0.93;;
19643;SDS011;9970;-36.854;174.870;2024-03-08T07:23:24;2.93;;;1.33;;
19643;SDS011;9970;-36.854;174.870;2024-03-08T07:26:17;1.57;;;1.47;;
19643;SDS011;9970;-36.854;174.870;2024-03-08T07:28:51;5.00;;;2.10;;
19643;SDS011;9970;-36.854;174.870;2024-03-08T07:31:27;4.80;;;1.67;;
19643;SDS011;9970;-36.854;174.870;2024-03-08T07:34:13;4.27;;;1.50;;
19643;SDS011;9970;-36.854;174.870;2024-03-08T07:36:46;7.03;;;1.90;;
19643;SDS011;9970;-36.854;174.870;2024-03-08T07:39:20;2.50;;;1.80;;
19643;SDS011;9970;-36.854;174.870;2024-03-08T07:41:53;5.37;;;1.90;;
19643;SDS011;9970;-36.854;174.870;2024-03-08T07:44:26;4.43;;;1.90;;
19643;SDS011;9970;-36.854;174.870;2024-03-08T07:47:00;4.90;;;2.40;;
19643;SDS011;9970;-36.854;174.870;2024-03-08T07:49:38;10.20;;;2.50;;
19643;SDS011;9970;-36.854;174.870;2024-03-08T07:52:11;5.17;;;2.17;;
19643;SDS011;9970;-36.854;174.870;2024-03-08T07:54:45;8.30;;;3.03;;
19643;SDS011;9970;-36.854;174.870;2024-03-08T07:57:18;14.17;;;3.37;;
19643;SDS011;9970;-36.854;174.870;2024-03-08T07:59:51;6.43;;;2.40;;
19643;SDS011;9970;-36.854;174.870;2024-03-08T08:02:24;6.77;;;2.30;;
19643;SDS011;9970;-36.854;174.870;2024-03-08T08:04:57;7.57;;;4.80;;
19643;SDS011;9970;-36.854;174.870;2024-03-08T08:07:30;6.20;;;2.60;;
19643;SDS011;9970;-36.854;174.870;2024-03-08T08:10:04;8.00;;;2.60;;
19643;SDS011;9970;-36.854;174.870;2024-03-08T08:12:37;10.80;;;2.87;;
19643;SDS011;9970;-36.854;174.870;2024-03-08T08:15:11;13.50;;;2.70;;
19643;SDS011;9970;-36.854;174.870;2024-03-08T08:17:48;7.13;;;2.83;;
19643;SDS011;9970;-36.854;174.870;2024-03-08T08:20:26;6.43;;;2.37;;
19643;SDS011;9970;-36.854;174.870;2024-03-08T08:22:58;17.40;;;4.13;;
19643;SDS011;9970;-36.854;174.870;2024-03-08T08:25:35;12.27;;;4.50;;
19643;SDS011;9970;-36.854;174.870;2024-03-08T08:28:08;7.20;;;3.00;;
19643;SDS011;9970;-36.854;174.870;2024-03-08T08:30:42;14.07;;;2.90;;
19643;SDS011;9970;-36.854;174.870;2024-03-08T08:33:15;9.40;;;3.40;;
19643;SDS011;9970;-36.854;174.870;2024-03-08T08:35:49;11.37;;;2.80;;
19643;SDS011;9970;-36.854;174.870;2024-03-08T08:38:24;9.80;;;3.90;;
19643;SDS011;9970;-36.854;174.870;2024-03-08T08:40:57;12.23;;;3.03;;
19643;SDS011;9970;-36.854;174.870;2024-03-08T08:43:34;9.43;;;3.10;;
19643;SDS011;9970;-36.854;174.870;2024-03-08T08:46:16;10.07;;;3.20;;
19643;SDS011;9970;-36.854;174.870;2024-03-08T08:48:49;6.90;;;2.90;;
19643;SDS011;9970;-36.854;174.870;2024-03-08T08:51:23;12.90;;;2.90;;
19643;SDS011;9970;-36.854;174.870;2024-03-08T08:53:57;7.80;;;2.40;;
19643;SDS011;9970;-36.854;174.870;2024-03-08T08:56:29;9.20;;;3.13;;
19643;SDS011;9970;-36.854;174.870;2024-03-08T08:59:03;5.60;;;3.00;;
19643;SDS011;9970;-36.854;174.870;2024-03-08T09:01:37;5.93;;;2.07;;
19643;SDS011;9970;-36.854;174.870;2024-03-08T09:04:10;8.40;;;3.00;;
19643;SDS011;9970;-36.854;174.870;2024-03-08T09:06:44;6.07;;;2.80;;
19643;SDS011;9970;-36.854;174.870;2024-03-08T09:09:17;7.03;;;2.40;;
19643;SDS011;9970;-36.854;174.870;2024-03-08T09:11:56;7.40;;;2.40;;
19643;SDS011;9970;-36.854;174.870;2024-03-08T09:14:29;9.97;;;1.87;;
19643;SDS011;9970;-36.854;174.870;2024-03-08T09:17:02;13.23;;;2.80;;
19643;SDS011;9970;-36.854;174.870;2024-03-08T09:19:40;9.63;;;2.80;;
19643;SDS011;9970;-36.854;174.870;2024-03-08T09:22:13;6.37;;;2.20;;
19643;SDS011;9970;-36.854;174.870;2024-03-08T09:24:46;5.73;;;2.90;;
19643;SDS011;9970;-36.854;174.870;2024-03-08T09:27:19;5.40;;;2.50;;
19643;SDS011;9970;-36.854;174.870;2024-03-08T09:29:52;8.47;;;3.03;;
19643;SDS011;9970;-36.854;174.870;2024-03-08T09:32:25;11.10;;;3.23;;
19643;SDS011;9970;-36.854;174.870;2024-03-08T09:34:58;6.67;;;2.10;;
19643;SDS011;9970;-36.854;174.870;2024-03-08T09:37:31;9.37;;;2.70;;
19643;SDS011;9970;-36.854;174.870;2024-03-08T09:40:05;7.40;;;2.63;;
19643;SDS011;9970;-36.854;174.870;2024-03-08T09:42:47;5.83;;;2.30;;
19643;SDS011;9970;-36.854;174.870;2024-03-08T09:45:20;8.17;;;2.40;;
19643;SDS011;9970;-36.854;174.870;2024-03-08T09:47:54;11.70;;;2.97;;
19643;SDS011;9970;-36.854;174.870;2024-03-08T09:50:27;7.30;;;2.43;;
19643;SDS011;9970;-36.854;174.870;2024-03-08T09:53:01;7.20;;;2.40;;
19643;SDS011;9970;-36.854;174.870;2024-03-08T09:55:38;10.70;;;2.90;;
19643;SDS011;9970;-36.854;174.870;2024-03-08T09:58:13;5.47;;;2.80;;
19643;SDS011;9970;-36.854;174.870;2024-03-08T10:00:48;13.23;;;3.63;;
19643;SDS011;9970;-36.854;174.870;2024-03-08T10:03:21;9.70;;;2.70;;
19643;SDS011;9970;-36.854;174.870;2024-03-08T10:06:01;6.17;;;3.13;;
19643;SDS011;9970;-36.854;174.870;2024-03-08T10:08:32;7.43;;;3.90;;
19643;SDS011;9970;-36.854;174.870;2024-03-08T10:11:06;7.10;;;1.83;;
19643;SDS011;9970;-36.854;174.870;2024-03-08T10:13:41;12.83;;;2.43;;
19643;SDS011;9970;-36.854;174.870;2024-03-08T10:16:13;7.43;;;2.70;;
19643;SDS011;9970;-36.854;174.870;2024-03-08T10:18:47;5.80;;;2.53;;
19643;SDS011;9970;-36.854;174.870;2024-03-08T10:21:19;14.57;;;2.63;;
19643;SDS011;9970;-36.854;174.870;2024-03-08T10:23:52;13.73;;;3.23;;
19643;SDS011;9970;-36.854;174.870;2024-03-08T10:26:27;10.50;;;2.73;;
19643;SDS011;9970;-36.854;174.870;2024-03-08T10:29:01;10.00;;;2.70;;
19643;SDS011;9970;-36.854;174.870;2024-03-08T10:31:35;8.83;;;2.73;;
19643;SDS011;9970;-36.854;174.870;2024-03-08T10:34:09;9.30;;;3.30;;
19643;SDS011;9970;-36.854;174.870;2024-03-08T10:36:42;14.47;;;3.20;;
19643;SDS011;9970;-36.854;174.870;2024-03-08T10:39:26;12.90;;;3.00;;
19643;SDS011;9970;-36.854;174.870;2024-03-08T10:41:58;7.63;;;2.63;;
19643;SDS011;9970;-36.854;174.870;2024-03-08T10:44:38;14.97;;;2.93;;
19643;SDS011;9970;-36.854;174.870;2024-03-08T10:47:27;11.17;;;3.40;;
19643;SDS011;9970;-36.854;174.870;2024-03-08T10:52:42;12.53;;;3.07;;
19643;SDS011;9970;-36.854;174.870;2024-03-08T10:55:17;3.40;;;2.73;;
19643;SDS011;9970;-36.854;174.870;2024-03-08T10:57:50;11.60;;;3.30;;
19643;SDS011;9970;-36.854;174.870;2024-03-08T11:00:26;9.47;;;2.93;;
19643;SDS011;9970;-36.854;174.870;2024-03-08T11:03:00;5.83;;;2.63;;
19643;SDS011;9970;-36.854;174.870;2024-03-08T11:05:37;15.10;;;2.83;;
19643;SDS011;9970;-36.854;174.870;2024-03-08T11:08:17;2.90;;;2.50;;
19643;SDS011;9970;-36.854;174.870;2024-03-08T11:10:52;6.03;;;2.07;;
19643;SDS011;9970;-36.854;174.870;2024-03-08T11:16:11;3.80;;;2.47;;
19643;SDS011;9970;-36.854;174.870;2024-03-08T11:18:47;11.77;;;3.13;;
19643;SDS011;9970;-36.854;174.870;2024-03-08T11:21:21;7.53;;;2.93;;
19643;SDS011;9970;-36.854;174.870;2024-03-08T11:24:08;7.23;;;2.33;;
19643;SDS011;9970;-36.854;174.870;2024-03-08T11:26:46;6.70;;;2.23;;
19643;SDS011;9970;-36.854;174.870;2024-03-08T11:32:10;7.17;;;2.27;;
19643;SDS011;9970;-36.854;174.870;2024-03-08T11:34:49;7.57;;;2.50;;
19643;SDS011;9970;-36.854;174.870;2024-03-08T11:37:22;10.63;;;3.00;;
19643;SDS011;9970;-36.854;174.870;2024-03-08T11:39:55;6.67;;;2.40;;
19643;SDS011;9970;-36.854;174.870;2024-03-08T11:42:29;9.80;;;3.20;;
19643;SDS011;9970;-36.854;174.870;2024-03-08T11:45:07;13.73;;;3.97;;
19643;SDS011;9970;-36.854;174.870;2024-03-08T11:47:41;3.80;;;2.30;;
19643;SDS011;9970;-36.854;174.870;2024-03-08T11:50:17;7.90;;;3.07;;
19643;SDS011;9970;-36.854;174.870;2024-03-08T11:52:51;11.70;;;2.77;;
19643;SDS011;9970;-36.854;174.870;2024-03-08T11:55:24;9.30;;;2.40;;
19643;SDS011;9970;-36.854;174.870;2024-03-08T11:58:05;8.17;;;2.47;;
19643;SDS011;9970;-36.854;174.870;2024-03-08T12:00:36;6.73;;;2.33;;
19643;SDS011;9970;-36.854;174.870;2024-03-08T12:03:10;6.63;;;2.13;;
19643;SDS011;9970;-36.854;174.870;2024-03-08T12:05:43;10.70;;;2.93;;
19643;SDS011;9970;-36.854;174.870;2024-03-08T12:08:18;6.20;;;2.13;;
19643;SDS011;9970;-36.854;174.870;2024-03-08T12:10:51;6.60;;;1.87;;
19643;SDS011;9970;-36.854;174.870;2024-03-08T12:13:25;5.10;;;2.20;;
19643;SDS011;9970;-36.854;174.870;2024-03-08T12:16:03;3.97;;;2.00;;
19643;SDS011;9970;-36.854;174.870;2024-03-08T12:18:37;6.47;;;3.03;;
19643;SDS011;9970;-36.854;174.870;2024-03-08T12:21:11;6.93;;;2.27;;
19643;SDS011;9970;-36.854;174.870;2024-03-08T12:23:45;6.00;;;2.37;;
19643;SDS011;9970;-36.854;174.870;2024-03-08T12:26:26;10.10;;;2.50;;
19643;SDS011;9970;-36.854;174.870;2024-03-08T12:29:15;10.20;;;2.33;;
19643;SDS011;9970;-36.854;174.870;2024-03-08T12:32:03;9.33;;;2.80;;
19643;SDS011;9970;-36.854;174.870;2024-03-08T12:34:37;3.73;;;2.13;;
19643;SDS011;9970;-36.854;174.870;2024-03-08T12:37:11;6.60;;;2.50;;
19643;SDS011;9970;-36.854;174.870;2024-03-08T12:39:44;10.60;;;3.00;;
19643;SDS011;9970;-36.854;174.870;2024-03-08T12:42:16;5.50;;;2.20;;
19643;SDS011;9970;-36.854;174.870;2024-03-08T12:44:49;10.57;;;2.37;;
19643;SDS011;9970;-36.854;174.870;2024-03-08T12:47:22;9.13;;;2.83;;
19643;SDS011;9970;-36.854;174.870;2024-03-08T12:49:56;6.40;;;2.40;;
19643;SDS011;9970;-36.854;174.870;2024-03-08T12:52:29;10.70;;;3.13;;
19643;SDS011;9970;-36.854;174.870;2024-03-08T12:55:03;9.10;;;2.63;;
19643;SDS011;9970;-36.854;174.870;2024-03-08T12:57:37;7.80;;;2.17;;
19643;SDS011;9970;-36.854;174.870;2024-03-08T13:00:10;3.83;;;1.97;;
19643;SDS011;9970;-36.854;174.870;2024-03-08T13:02:45;13.17;;;3.37;;
19643;SDS011;9970;-36.854;174.870;2024-03-08T13:05:19;8.63;;;3.30;;
19643;SDS011;9970;-36.854;174.870;2024-03-08T13:07:52;4.83;;;2.33;;
19643;SDS011;9970;-36.854;174.870;2024-03-08T13:10:26;9.77;;;2.43;;
19643;SDS011;9970;-36.854;174.870;2024-03-08T13:12:59;2.03;;;1.80;;
19643;SDS011;9970;-36.854;174.870;2024-03-08T13:15:32;7.70;;;2.40;;
19643;SDS011;9970;-36.854;174.870;2024-03-08T13:18:06;5.50;;;1.83;;
19643;SDS011;9970;-36.854;174.870;2024-03-08T13:20:39;8.07;;;2.70;;
19643;SDS011;9970;-36.854;174.870;2024-03-08T13:23:14;8.50;;;2.07;;
19643;SDS011;9970;-36.854;174.870;2024-03-08T13:25:47;7.10;;;2.00;;
19643;SDS011;9970;-36.854;174.870;2024-03-08T13:28:21;4.43;;;2.00;;
19643;SDS011;9970;-36.854;174.870;2024-03-08T13:30:55;11.43;;;2.10;;
19643;SDS011;9970;-36.854;174.870;2024-03-08T13:33:29;10.13;;;2.37;;
19643;SDS011;9970;-36.854;174.870;2024-03-08T13:36:03;14.67;;;3.10;;
19643;SDS011;9970;-36.854;174.870;2024-03-08T13:38:39;9.83;;;3.20;;
19643;SDS011;9970;-36.854;174.870;2024-03-08T13:41:15;11.83;;;3.10;;
19643;SDS011;9970;-36.854;174.870;2024-03-08T13:43:50;6.57;;;2.33;;
19643;SDS011;9970;-36.854;174.870;2024-03-08T13:46:23;9.07;;;2.67;;
19643;SDS011;9970;-36.854;174.870;2024-03-08T13:48:56;8.03;;;2.50;;
19643;SDS011;9970;-36.854;174.870;2024-03-08T13:51:31;10.53;;;2.60;;
19643;SDS011;9970;-36.854;174.870;2024-03-08T13:54:05;12.97;;;2.53;;
19643;SDS011;9970;-36.854;174.870;2024-03-08T13:56:39;7.60;;;2.20;;
19643;SDS011;9970;-36.854;174.870;2024-03-08T13:59:13;5.70;;;1.90;;
19643;SDS011;9970;-36.854;174.870;2024-03-08T14:01:47;9.23;;;2.80;;
19643;SDS011;9970;-36.854;174.870;2024-03-08T14:04:20;10.20;;;2.80;;
19643;SDS011;9970;-36.854;174.870;2024-03-08T14:06:53;4.10;;;1.80;;
19643;SDS011;9970;-36.854;174.870;2024-03-08T14:09:34;11.37;;;2.53;;
19643;SDS011;9970;-36.854;174.870;2024-03-08T14:12:08;6.67;;;2.10;;
19643;SDS011;9970;-36.854;174.870;2024-03-08T14:14:41;3.80;;;2.60;;
19643;SDS011;9970;-36.854;174.870;2024-03-08T14:17:14;6.73;;;1.90;;
19643;SDS011;9970;-36.854;174.870;2024-03-08T14:19:47;7.00;;;2.10;;
19643;SDS011;9970;-36.854;174.870;2024-03-08T14:22:20;9.33;;;2.53;;
19643;SDS011;9970;-36.854;174.870;2024-03-08T14:24:53;4.43;;;2.40;;
19643;SDS011;9970;-36.854;174.870;2024-03-08T14:27:27;6.87;;;2.37;;
19643;SDS011;9970;-36.854;174.870;2024-03-08T14:30:00;8.47;;;2.13;;
19643;SDS011;9970;-36.854;174.870;2024-03-08T14:32:33;3.80;;;2.23;;
19643;SDS011;9970;-36.854;174.870;2024-03-08T14:35:07;10.47;;;2.47;;
19643;SDS011;9970;-36.854;174.870;2024-03-08T14:37:40;5.27;;;2.13;;
19643;SDS011;9970;-36.854;174.870;2024-03-08T14:40:13;7.53;;;3.17;;
19643;SDS011;9970;-36.854;174.870;2024-03-08T14:42:46;13.77;;;2.43;;
19643;SDS011;9970;-36.854;174.870;2024-03-08T14:45:22;3.53;;;2.00;;
19643;SDS011;9970;-36.854;174.870;2024-03-08T14:47:59;4.77;;;2.57;;
19643;SDS011;9970;-36.854;174.870;2024-03-08T14:50:32;6.83;;;2.30;;
19643;SDS011;9970;-36.854;174.870;2024-03-08T14:53:06;7.60;;;2.23;;
19643;SDS011;9970;-36.854;174.870;2024-03-08T14:55:39;5.50;;;2.00;;
19643;SDS011;9970;-36.854;174.870;2024-03-08T14:58:12;7.47;;;2.10;;
19643;SDS011;9970;-36.854;174.870;2024-03-08T15:00:45;5.00;;;2.30;;
19643;SDS011;9970;-36.854;174.870;2024-03-08T15:03:18;7.93;;;3.10;;
19643;SDS011;9970;-36.854;174.870;2024-03-08T15:05:53;7.30;;;2.77;;
19643;SDS011;9970;-36.854;174.870;2024-03-08T15:08:26;14.53;;;2.73;;